Date,TemperatureHighF,TemperatureAvgF,TemperatureLowF,DewpointHighF,DewpointAvgF,DewpointLowF,HumidityHigh,HumidityAvg,HumidityLow,PressureMaxIn,PressureMinIn,WindSpeedMaxMPH,WindSpeedAvgMPH,GustSpeedMaxMPH,PrecipitationSumIn
2013-1-1,32,27,16,30,21,13,94,79,62,30.14,30.01,6,2,11,0.00
2013-1-2,22,14,6,16,10,4,93,85,77,30.26,30.12,9,3,12,0.00
2013-1-3,29,21,9,26,16,4,88,80,67,30.25,30.16,14,7,22,0.00
2013-1-4,29,23,17,24,18,13,87,82,76,30.27,30.19,22,13,30,0.00
2013-1-5,35,28,17,32,24,15,92,85,75,30.32,30.08,12,7,18,0.00
2013-1-6,37,33,27,33,29,24,92,86,82,30.29,29.96,14,9,23,0.00
2013-1-7,35,30,25,28,26,22,91,86,75,30.43,30.20,14,6,25,0.00
2013-1-8,39,29,21,32,25,19,92,84,74,30.29,30.19,7,4,12,0.00
2013-1-9,42,38,31,37,34,28,90,84,77,30.48,30.11,15,9,23,0.00
2013-1-10,39,33,25,34,30,24,96,87,78,30.54,30.11,10,4,14,0.00
2013-1-11,59,49,37,55,46,34,97,90,78,30.11,29.78,17,7,25,0.60
2013-1-12,60,53,46,55,50,44,98,91,83,29.95,29.71,13,5,17,0.61
2013-1-13,54,42,33,53,41,31,98,96,91,30.06,29.65,16,5,26,1.99
2013-1-14,33,25,22,31,21,18,91,85,79,30.46,30.06,12,5,21,0.09
2013-1-15,29,25,20,24,21,17,91,82,71,30.44,30.14,9,4,13,0.00
2013-1-16,35,30,23,29,24,21,93,82,68,30.14,29.90,17,7,24,0.00
2013-1-17,40,32,21,32,26,14,92,78,56,30.36,30.01,10,5,22,0.00
2013-1-18,38,29,21,28,22,16,85,74,59,30.47,30.06,19,9,33,0.00
2013-1-19,50,43,38,37,32,27,77,64,55,30.06,29.72,23,16,40,0.00
2013-1-20,43,26,19,37,17,12,80,67,52,30.22,29.71,22,9,44,0.00
2013-1-21,20,16,9,13,7,-2,78,66,51,30.20,30.04,19,10,30,0.00
2013-1-22,13,10,5,2,0,-2,73,64,53,30.36,30.20,13,9,25,0.00
2013-1-23,19,14,9,16,6,1,90,70,52,30.35,30.09,16,7,19,0.00
2013-1-24,22,16,10,16,8,5,90,70,47,30.62,30.10,14,4,28,0.00
2013-1-25,24,21,18,21,16,10,89,80,68,30.49,30.03,9,5,13,0.00
2013-1-26,30,24,16,22,19,11,92,79,57,30.46,30.08,6,2,13,0.00
2013-1-27,34,26,16,31,21,14,91,82,71,30.48,30.11,10,4,13,0.00
2013-1-28,49,44,34,48,43,32,98,96,91,30.12,29.91,19,9,29,0.19
2013-1-29,60,54,42,57,53,41,99,93,87,29.98,29.44,18,9,30,0.01
2013-1-30,63,51,33,59,48,28,98,91,84,29.42,29.14,23,13,44,0.37
2013-1-31,33,22,15,30,15,9,92,75,62,29.98,29.36,25,14,39,0.10
2013-2-1,15,12,8,9,6,3,81,76,70,30.34,29.98,18,12,29,0.00
2013-2-2,25,20,14,22,17,9,92,87,78,30.29,29.98,13,7,20,0.00
2013-2-3,21,18,13,16,14,11,92,85,78,30.07,29.94,14,5,23,0.00
2013-2-4,25,21,15,23,19,12,93,90,83,30.08,29.85,11,4,15,0.00
2013-2-5,31,24,14,29,22,12,95,90,76,29.99,29.83,10,3,16,0.00
2013-2-6,33,28,21,28,20,15,90,72,54,30.29,29.99,8,3,13,0.00
2013-2-7,40,32,24,33,26,19,93,81,71,30.25,29.78,9,4,11,0.06
2013-2-8,34,31,22,33,27,18,97,85,73,30.34,29.76,15,6,27,0.17
2013-2-9,35,25,15,25,20,13,95,83,66,30.45,30.27,5,1,9,0.02
2013-2-10,47,37,25,44,31,22,94,77,64,30.27,29.69,15,5,25,0.01
2013-2-11,47,39,33,44,33,25,96,80,71,29.95,29.60,27,16,44,0.01
2013-2-12,38,32,28,31,27,24,88,78,72,30.09,29.92,14,7,23,0.00
2013-2-13,38,31,27,31,26,23,90,84,74,29.93,29.76,7,3,11,0.00
2013-2-14,44,37,32,39,33,29,94,85,74,29.93,29.73,21,9,31,0.00
2013-2-15,35,30,24,29,24,17,87,76,61,30.16,29.93,9,4,18,0.00
2013-2-16,26,22,16,22,17,8,92,79,63,30.14,30.03,12,4,22,0.00
2013-2-17,28,20,13,17,12,9,90,72,46,30.25,30.11,9,3,15,0.00
2013-2-18,53,37,21,41,27,14,76,68,59,30.22,29.63,19,10,32,0.01
2013-2-19,47,27,17,42,23,10,92,83,74,30.06,29.49,25,18,46,0.05
2013-2-20,24,20,16,18,14,11,82,78,69,30.30,30.05,15,10,28,0.01
2013-2-21,27,24,22,22,18,16,82,78,72,30.38,30.19,15,7,22,0.00
2013-2-22,36,30,22,35,28,17,98,93,81,30.19,29.88,17,8,25,0.02
2013-2-23,34,30,28,32,25,22,95,82,75,29.97,29.90,11,8,18,0.02
2013-2-24,37,31,27,28,25,22,84,78,66,30.15,29.93,11,4,17,0.00
2013-2-25,42,32,22,31,27,21,96,81,62,30.22,30.02,10,3,18,0.00
2013-2-26,36,33,30,35,30,26,97,91,83,30.03,29.42,16,8,24,0.60
2013-2-27,36,35,32,35,33,31,98,96,91,29.61,29.42,17,10,24,0.48
2013-2-28,38,35,32,35,32,31,98,92,84,29.93,29.58,11,4,18,0.01
2013-3-1,34,30,27,32,26,21,93,84,77,30.10,29.93,12,7,17,0.01
2013-3-2,28,27,26,23,21,19,85,78,73,30.09,30.05,9,6,15,0.00
2013-3-3,32,27,24,21,18,16,84,70,52,30.08,30.02,10,4,19,0.00
2013-3-4,37,30,19,26,21,16,90,72,52,30.16,30.05,4,1,8,0.00
2013-3-5,33,31,28,30,27,24,96,85,77,30.09,29.69,17,11,26,0.00
2013-3-6,39,32,28,30,27,24,96,84,71,30.23,29.72,19,8,29,0.01
2013-3-7,39,35,32,33,29,25,90,79,64,30.38,30.21,6,2,12,0.01
2013-3-8,44,34,24,30,26,23,95,75,56,30.49,30.38,6,1,9,0.00
2013-3-9,48,38,27,39,32,25,94,80,63,30.40,29.98,8,3,13,0.05
2013-3-10,64,54,45,48,41,35,72,62,49,29.99,29.76,17,7,25,0.05
2013-3-11,57,49,37,50,44,33,94,83,61,29.77,29.49,23,15,36,0.28
2013-3-12,37,34,33,34,30,27,92,83,72,29.96,29.75,17,11,26,0.04
2013-3-13,33,29,26,30,24,19,94,81,68,30.27,29.93,14,9,26,0.00
2013-3-14,40,31,23,28,23,18,83,71,51,30.31,30.12,12,5,21,0.00
2013-3-15,47,38,31,41,34,25,96,86,75,30.13,29.78,13,6,18,0.10
2013-3-16,42,35,32,41,34,29,98,94,88,30.05,29.65,12,6,21,0.10
2013-3-17,32,30,28,29,25,22,88,79,74,30.22,30.04,15,8,23,0.00
2013-3-18,38,33,28,37,30,24,98,92,81,30.11,29.54,17,10,32,0.04
2013-3-19,36,30,24,34,21,15,92,69,52,30.00,29.71,25,15,39,0.01
2013-3-20,31,27,20,22,16,10,78,64,53,30.00,29.93,14,8,25,0.00
2013-3-21,32,25,18,22,18,12,88,76,62,30.00,29.94,12,5,23,0.00
2013-3-22,42,30,20,24,20,16,87,67,40,30.04,29.97,11,4,20,0.00
2013-3-23,43,32,22,30,25,20,93,75,54,30.09,29.99,8,2,13,0.00
2013-3-24,32,29,27,28,25,23,89,86,82,30.00,29.81,12,6,20,0.00
2013-4-10,54,49,45,51,48,44,97,94,90,29.93,29.76,14,8,23,0.85
2013-4-11,45,42,40,44,41,39,98,96,95,29.90,29.54,19,12,29,1.62
2013-4-12,43,41,40,39,37,33,98,88,75,29.84,29.52,20,10,28,0.41
2013-4-13,43,40,38,37,35,32,92,82,67,29.99,29.84,19,10,27,0.01
2013-4-14,58,46,37,49,41,34,91,81,68,30.08,29.87,13,5,18,0.00
2013-4-15,69,58,42,57,50,40,94,76,61,29.93,29.83,16,7,25,0.00
2013-4-16,62,55,50,55,51,45,96,88,78,30.17,29.85,12,3,20,0.25
2013-4-17,55,51,46,47,44,41,89,77,70,30.24,29.96,16,10,24,0.06
2013-4-18,79,62,46,66,57,40,97,85,61,30.00,29.57,28,10,46,0.44
2013-4-19,63,45,37,60,40,32,97,85,69,29.83,29.39,28,15,43,0.45
2013-4-20,45,38,34,34,28,22,90,67,43,30.43,29.83,16,7,22,0.01
2013-4-21,50,39,29,35,29,22,84,67,47,30.58,30.43,11,5,17,0.00
2013-4-22,67,48,32,41,34,29,91,63,31,30.43,30.13,7,3,15,0.00
2013-4-23,71,56,41,56,47,38,97,74,43,30.14,29.77,19,6,31,0.28
2013-4-24,59,44,37,56,40,29,96,87,61,30.16,29.70,12,6,24,0.72
2013-4-25,52,44,36,40,35,29,88,72,47,30.35,30.15,21,7,33,0.01
2013-4-26,61,47,32,39,36,31,96,67,37,30.44,30.33,10,3,16,0.00
2013-4-27,70,56,38,48,39,35,94,59,28,30.34,30.04,9,3,16,0.00
2013-4-28,60,57,53,58,53,-100,97,90,68,30.04,29.78,7,4,13,0.46
2013-4-29,68,60,54,59,56,53,98,87,65,29.92,29.82,9,3,16,0.01
2013-4-30,77,64,52,61,56,51,96,76,51,30.01,29.91,14,6,21,0.00
2013-5-1,82,70,53,61,57,51,96,67,42,30.14,30.01,10,3,16,0.00
2013-5-2,77,68,56,59,56,53,92,69,48,30.17,30.06,13,4,18,0.00
2013-5-3,78,69,61,60,53,43,84,60,30,30.06,29.93,14,6,21,0.00
2013-5-4,70,64,57,48,46,40,71,52,35,30.01,29.93,15,8,21,0.00
2013-5-5,74,61,51,49,46,41,84,59,32,30.01,29.92,14,6,24,0.00
2013-5-6,73,64,53,52,48,43,71,57,43,29.98,29.89,8,4,14,0.00
2013-5-7,74,64,54,56,52,47,83,67,52,29.98,29.91,14,5,20,0.00
2013-5-8,78,66,54,57,53,50,91,66,37,29.96,29.88,9,2,19,0.00
2013-5-9,80,68,54,59,55,46,95,67,30,29.94,29.86,10,2,14,0.00
2013-5-10,70,63,51,63,56,-100,94,84,72,29.88,29.70,14,7,24,0.18
2013-5-11,52,49,47,48,45,43,91,88,82,29.86,29.82,11,3,14,0.04
2013-5-14,83,79,73,60,57,50,64,47,39,29.80,29.66,15,7,26,0.00
2013-5-15,85,76,71,61,57,51,66,52,32,29.75,29.61,15,8,27,0.00
2013-5-16,85,66,56,57,30,-100,88,49,21,29.90,29.72,5,1,10,0.00
2013-5-17,83,66,53,54,44,-100,75,55,36,30.06,29.90,13,6,22,0.00
2013-5-18,79,66,55,61,51,40,73,60,45,30.07,29.96,10,4,15,0.00
2013-5-19,87,72,56,67,58,48,81,63,43,29.97,29.82,6,2,12,0.00
2013-5-20,89,78,68,71,67,64,89,69,45,29.88,29.75,17,6,25,0.00
2013-5-21,87,78,71,67,63,58,83,63,39,29.79,29.67,17,8,33,0.00
2013-5-22,80,72,64,66,63,59,92,75,52,29.72,29.61,21,7,31,0.10
2013-5-23,66,62,53,61,58,49,93,88,77,29.90,29.69,13,6,21,0.12
2013-5-27,59,58,57,58,56,55,96,95,94,29.93,29.91,8,5,11,0.60
2013-5-28,81,71,59,71,65,58,97,83,66,29.92,29.81,15,6,27,0.54
2013-5-29,86,78,72,69,65,61,76,66,48,29.95,29.84,13,8,26,0.04
2013-5-30,88,80,68,71,67,62,89,67,48,30.02,29.89,13,6,27,0.01
2013-5-31,79,74,70,71,68,62,92,80,68,29.95,29.83,15,7,36,0.63
2013-6-1,77,70,63,69,66,62,97,87,68,29.91,29.67,16,4,36,1.97
2013-6-2,71,66,56,67,59,-100,92,83,71,29.94,29.67,12,6,21,0.01
2013-6-3,68,58,52,51,46,37,90,66,38,30.06,29.93,7,3,13,0.00
2013-6-4,73,62,48,53,49,46,96,67,41,30.15,30.06,8,3,14,0.00
2013-6-5,76,64,53,54,50,44,81,62,43,30.11,29.90,11,6,20,0.00
2013-6-6,72,63,58,59,53,48,85,71,58,29.91,29.78,8,5,15,0.00
2013-6-7,67,60,54,57,54,51,95,80,66,29.87,29.82,10,3,17,0.00
2013-6-8,77,64,50,57,53,49,98,70,43,30.00,29.87,4,1,10,0.00
2013-6-9,84,72,61,67,60,55,95,68,38,30.02,29.85,15,3,25,0.08
2013-6-10,79,70,67,68,66,63,96,86,61,29.85,29.67,8,3,17,0.47
2013-6-11,84,73,64,70,65,62,96,77,54,29.88,29.75,8,3,14,0.01
2013-6-12,89,77,66,76,70,65,96,81,58,29.85,29.53,16,1,43,0.03
2013-6-13,78,70,66,67,61,53,99,74,44,29.87,29.44,16,5,43,0.90
2013-6-14,78,68,60,62,59,56,94,74,50,30.03,29.87,8,2,15,0.02
2013-6-15,80,68,58,66,61,56,95,80,53,30.07,29.90,8,2,15,0.02
2013-6-16,80,72,65,71,67,63,94,83,68,29.90,29.83,11,5,21,0.13
2013-6-17,86,75,66,71,66,59,97,76,41,29.90,29.82,6,2,10,0.06
2013-6-18,76,69,64,66,62,57,92,77,61,29.99,29.81,10,4,17,0.00
2013-6-19,79,66,54,58,52,48,88,64,38,30.11,29.99,7,3,13,0.00
2013-6-20,84,68,55,63,55,50,91,66,45,30.16,30.10,6,2,15,0.00
2013-6-22,90,86,76,74,71,69,78,63,53,30.04,29.93,11,6,20,0.00
2013-6-23,90,78,69,71,68,67,97,74,48,30.05,29.93,12,4,22,0.71
2013-6-24,86,76,68,72,69,67,97,80,58,30.03,29.91,10,4,25,0.10
2013-6-25,89,78,69,76,70,64,95,78,56,29.95,29.76,14,6,26,0.13
2013-6-26,86,74,68,76,69,66,97,86,66,29.88,29.69,10,4,16,0.17
2013-6-27,85,76,70,74,71,66,98,84,62,29.71,29.60,7,2,16,0.14
2013-6-28,82,73,66,70,66,62,97,81,56,29.60,29.49,9,2,21,0.01
2013-6-29,77,68,61,67,64,60,98,88,65,29.65,29.50,5,1,10,0.76
2013-6-30,75,68,63,65,62,60,97,83,63,29.85,29.65,11,5,19,0.19
2013-7-1,68,64,61,64,60,55,94,85,79,29.97,29.85,10,5,19,0.10
2013-7-2,73,66,61,69,64,57,97,91,83,29.99,29.93,9,5,17,0.12
2013-7-3,82,73,64,70,66,63,99,83,58,30.05,29.97,10,3,17,0.10
2013-7-4,80,73,66,70,68,65,97,85,66,30.10,30.02,5,1,11,0.00
2013-7-5,83,74,68,71,69,67,99,85,64,30.07,30.00,7,2,12,0.10
2013-7-6,80,73,69,74,70,68,97,90,71,30.06,29.94,8,2,12,0.25
2013-7-7,81,71,67,71,68,63,97,91,65,30.03,29.95,9,3,18,0.26
2013-7-8,83,72,66,75,69,-100,99,92,74,30.06,29.93,11,3,30,1.28
2013-7-9,86,78,73,79,75,72,96,90,74,29.96,29.86,8,3,16,0.23
2013-7-10,85,77,67,78,69,-100,93,82,67,29.90,29.71,12,5,26,0.09
2013-7-11,78,70,63,63,60,56,93,73,49,30.01,29.89,8,2,15,0.05
2013-7-12,78,68,59,64,61,58,97,79,58,30.10,29.99,9,2,15,0.00
2013-7-13,83,73,62,71,66,60,96,79,59,30.14,30.06,9,3,14,0.00
2013-7-14,89,77,66,77,71,65,97,82,60,30.18,30.12,7,3,14,0.00
2013-7-15,91,81,71,76,73,70,98,79,56,30.24,30.17,6,2,12,0.00
2013-7-16,92,83,72,77,74,71,97,78,55,30.27,30.19,3,0,8,0.00
2013-7-17,93,82,71,77,74,70,96,78,52,30.26,30.11,4,1,14,0.00
2013-7-18,93,83,73,80,75,71,97,78,56,30.13,29.94,6,1,11,0.03
2013-7-19,91,83,74,77,74,72,93,76,55,29.95,29.74,15,6,28,0.03
2013-7-20,85,79,71,76,72,67,99,83,56,29.85,29.69,11,4,21,1.28
2013-7-21,87,76,67,71,69,65,97,80,52,29.93,29.83,6,2,11,0.01
2013-7-22,78,72,67,72,68,65,97,88,73,29.88,29.72,6,2,10,0.49
2013-7-23,84,74,65,72,67,58,99,81,57,29.80,29.65,12,3,20,0.02
2013-7-24,72,64,54,59,54,51,90,73,56,29.99,29.79,8,4,18,0.00
2013-7-25,76,65,53,60,56,52,98,75,48,30.07,29.99,5,1,12,0.00
2013-7-26,79,68,55,65,60,54,98,78,55,30.06,29.88,6,2,13,0.00
2013-7-27,77,68,57,69,62,54,95,82,53,29.89,29.72,14,4,33,0.11
2013-7-28,69,60,52,55,53,50,95,79,61,29.99,29.84,11,4,23,0.07
2013-7-29,73,62,52,61,55,49,96,81,61,30.15,29.98,10,3,18,0.00
2013-7-30,80,67,53,65,60,52,99,80,54,30.19,30.08,4,1,9,0.00
2013-7-31,76,70,66,69,66,63,99,88,73,30.08,29.88,7,2,13,0.10
2013-8-1,78,70,61,69,64,57,99,83,52,29.92,29.85,10,2,22,0.32
2013-8-2,76,64,55,69,61,53,97,91,76,29.98,29.81,11,3,26,1.25
2013-8-3,79,71,63,68,63,57,99,79,53,29.99,29.89,6,1,15,1.07
2013-8-4,76,66,55,61,57,54,96,75,51,30.13,29.99,7,1,15,0.01
2013-8-5,76,65,53,65,59,52,98,81,55,30.08,29.92,4,1,8,0.00
2013-8-6,79,71,64,70,65,60,94,81,68,29.93,29.85,9,2,14,0.00
2013-8-7,83,75,68,75,71,67,97,88,73,29.86,29.79,9,2,15,0.00
2013-8-8,74,71,68,70,68,66,98,92,86,29.93,29.84,7,2,12,0.00
2013-8-9,82,72,66,68,64,56,95,76,53,29.97,29.88,5,1,10,0.00
2013-8-10,81,71,65,70,66,63,98,85,65,30.06,29.97,8,2,12,0.00
2013-8-11,82,70,59,67,62,58,98,80,54,30.08,29.99,8,1,16,0.00
2013-8-12,84,71,61,71,66,60,98,84,60,30.03,29.80,7,2,12,0.00
2013-8-13,72,65,58,69,56,-100,96,75,50,30.02,29.79,11,3,18,0.00
2013-8-14,71,59,49,56,49,-100,94,75,47,30.15,30.02,7,1,15,0.00
2013-8-15,75,57,49,58,42,-100,97,75,46,30.16,30.07,5,1,9,0.00
2013-8-16,78,64,56,61,53,-100,95,75,47,30.15,30.09,6,1,10,0.00
2013-8-17,79,66,54,63,58,53,98,77,45,30.20,30.12,8,2,12,0.00
2013-8-18,83,68,57,67,58,-100,98,76,46,30.16,30.06,5,1,9,0.00
2013-8-19,83,66,56,65,50,-100,98,77,49,30.09,30.00,7,1,12,0.00
2013-8-20,86,73,60,70,63,-100,98,76,50,30.12,30.03,5,1,9,0.00
2013-8-21,85,73,64,72,67,62,93,82,60,30.11,29.97,10,2,13,0.00
2013-8-22,81,73,67,73,69,65,95,88,76,30.02,29.94,10,3,17,0.00
2013-8-23,81,72,63,68,63,56,98,75,42,30.13,29.99,7,2,13,0.00
2013-8-24,83,69,55,63,58,54,98,72,39,30.26,30.13,8,2,15,0.00
2013-8-25,86,72,57,67,60,-100,96,72,48,30.26,30.14,8,2,16,0.00
2013-8-26,87,75,65,73,67,60,87,77,62,30.17,29.97,10,4,19,0.00
2013-8-27,85,75,70,77,71,68,94,88,75,29.98,29.88,8,3,15,0.00
2013-8-28,88,82,74,77,74,71,91,77,67,29.93,29.82,10,3,16,0.00
2013-8-29,87,75,67,72,69,67,99,84,56,30.02,29.93,7,2,10,0.00
2013-8-30,88,75,63,72,68,62,99,81,55,29.95,29.72,11,2,16,0.00
2013-8-31,86,77,71,74,72,68,96,84,67,29.79,29.68,7,2,13,0.00
2013-9-1,78,72,67,72,68,-100,99,90,82,29.75,29.70,11,2,15,0.87
2013-9-2,81,72,63,71,65,57,99,81,50,29.87,29.70,7,2,15,0.04
2013-9-3,77,65,57,60,56,51,92,73,49,30.00,29.87,8,2,13,0.04
2013-9-4,82,67,53,62,58,52,98,75,45,30.09,29.99,9,2,17,0.00
2013-9-5,78,65,54,60,51,38,95,66,25,30.19,30.06,9,2,14,0.00
2013-9-6,81,62,48,56,51,47,98,71,32,30.24,30.06,4,1,9,0.00
2013-9-7,85,70,57,69,60,49,85,70,50,30.06,29.87,11,2,16,0.00
2013-9-8,74,68,63,68,63,-100,98,85,74,29.99,29.88,10,4,16,0.00
2013-9-9,91,73,59,71,64,55,91,76,50,30.00,29.85,10,3,17,0.00
2013-9-10,96,84,75,74,70,65,90,66,38,30.01,29.89,11,5,20,0.00
2013-9-11,94,82,72,73,69,64,90,68,37,30.03,29.89,12,4,21,0.00
2013-9-12,82,72,61,71,65,55,97,81,40,29.92,29.77,6,2,14,0.10
2013-9-13,62,56,49,57,48,43,89,74,53,30.10,29.92,8,3,18,0.06
2013-9-14,72,54,41,47,42,36,98,69,31,30.19,30.07,4,1,7,0.00
2013-9-15,72,54,46,56,47,-100,96,81,44,30.11,29.97,7,1,17,0.20
2013-9-16,66,58,52,56,53,47,98,84,55,30.31,30.09,8,2,13,0.20
2013-9-17,72,56,43,52,47,42,97,75,39,30.35,30.17,8,2,12,0.01
2013-9-18,63,52,52,51,50,49,95,92,83,30.17,30.00,3,0,5,0.01
2013-9-19,81,70,62,69,65,54,98,87,64,30.01,29.88,8,2,19,0.10
2013-9-20,83,73,68,72,69,66,98,90,65,29.90,29.71,13,4,22,0.10
2013-9-21,71,64,53,67,56,47,98,78,45,29.85,29.67,10,2,22,0.00
2013-9-22,62,52,47,49,43,-100,95,77,53,29.99,29.84,8,2,16,0.00
2013-9-23,68,68,68,52,52,52,56,56,56,30.06,30.05,0,0,0,0.00
2013-9-25,70,70,69,57,57,56,66,64,63,29.93,29.86,0,0,0,0.00
2013-9-26,71,70,70,60,59,59,69,68,67,30.03,30.01,0,0,0,0.00
2013-9-28,82,73,49,59,53,48,98,54,35,30.14,29.98,6,2,11,0.00
2013-9-29,64,61,59,63,57,-100,98,90,69,29.99,29.92,4,1,7,0.49
2013-9-30,73,61,55,63,58,55,99,90,60,30.00,29.89,4,0,10,0.01
2013-10-1,67,63,56,61,60,55,97,88,81,29.96,29.94,0,0,3,0.01
2013-10-2,83,70,62,69,64,60,97,83,56,30.05,29.96,3,0,7,0.01
2013-10-3,82,71,63,70,66,62,98,85,59,30.00,29.89,5,1,14,0.00
2013-10-4,83,71,66,72,67,64,97,89,67,29.99,29.92,6,2,12,0.15
2013-10-5,80,70,65,72,68,64,99,93,75,29.99,29.81,5,1,8,1.78
2013-10-6,71,64,54,68,63,48,97,95,83,29.83,29.63,7,3,21,0.54
2013-10-7,62,52,44,51,46,42,94,81,60,30.12,29.73,8,3,17,0.11
2013-10-8,69,54,42,53,46,41,99,78,44,30.27,30.12,6,1,10,0.01
2013-10-9,71,56,44,51,46,43,98,74,36,30.27,30.16,10,2,14,0.01
2013-10-10,72,57,42,54,46,41,99,74,35,30.19,30.08,5,1,10,0.00
2013-10-11,76,58,46,57,50,45,99,79,38,30.11,30.01,5,1,8,0.00
2013-10-12,79,62,48,61,55,47,99,80,46,30.07,29.98,5,1,11,0.01
2013-10-13,70,61,53,59,48,-100,94,66,35,30.32,30.06,7,2,13,0.01
2013-10-14,66,54,44,52,46,42,93,77,49,30.36,30.22,7,2,12,0.00
2013-10-15,66,56,45,62,53,43,96,91,84,30.22,29.86,6,2,11,0.09
2013-10-16,64,58,46,63,52,42,96,82,59,29.92,29.82,6,2,16,0.09
2013-10-17,52,47,40,49,45,39,98,92,84,29.92,29.80,6,1,12,0.10
2013-10-18,65,51,39,52,44,38,97,80,47,29.94,29.86,7,2,19,0.01
2013-10-19,52,44,40,44,40,37,96,87,65,29.94,29.80,6,1,13,0.32
2013-10-20,63,51,42,46,40,-100,84,69,46,29.94,29.87,6,3,16,0.02
2013-10-21,61,52,40,50,45,35,93,77,64,29.91,29.82,6,3,13,0.02
2013-10-22,51,40,31,36,31,26,93,74,40,29.99,29.89,5,2,13,0.08
2013-10-23,45,38,34,38,35,31,97,88,65,29.99,29.82,4,1,11,0.09
2013-10-24,45,39,34,35,33,31,91,80,66,30.22,29.98,6,2,21,0.01
2013-10-25,48,42,32,38,31,28,92,68,47,30.38,30.19,6,2,13,0.00
2013-10-26,52,44,37,40,33,28,81,67,59,30.19,29.84,9,4,22,0.00
2013-10-27,55,42,32,40,33,-100,96,74,44,30.08,30.01,5,1,12,0.00
2013-10-28,57,43,30,41,34,-100,97,78,51,30.35,30.06,4,1,9,0.00
2013-10-29,57,44,33,43,38,31,94,82,56,30.40,30.22,6,2,11,0.00
2013-10-30,64,52,38,60,48,37,97,86,74,30.22,29.92,7,2,17,0.00
2013-10-31,64,61,59,62,60,58,98,95,90,29.92,29.20,12,5,24,1.26
2013-11-1,60,50,47,59,47,42,98,87,79,29.68,29.23,11,4,21,0.55
2013-11-2,50,47,45,46,44,42,95,90,81,29.93,29.67,5,2,14,0.10
2013-11-6,57,49,44,54,46,41,94,92,90,30.01,29.89,8,4,16,0.17
2013-11-7,48,42,38,42,35,30,91,75,51,30.19,30.00,8,3,16,0.01
2013-11-8,47,38,32,35,32,30,93,80,55,30.32,30.16,4,1,9,0.00
2013-11-9,60,49,39,44,37,-100,83,66,54,30.17,29.87,12,6,29,0.00
2013-11-10,49,43,34,40,34,30,87,71,57,30.30,29.96,8,3,18,0.00
2013-12-1,48,42,35,37,34,31,86,76,65,30.03,29.98,4,1,8,0.00
2013-12-2,40,34,29,34,31,27,96,89,76,29.98,29.85,7,2,11,0.01
2013-12-3,50,41,34,47,39,32,96,93,87,29.87,29.78,7,3,11,0.04
2013-12-4,59,52,45,56,50,44,95,92,87,29.84,29.62,9,4,18,0.03
2013-12-5,59,42,29,56,38,27,94,84,74,30.17,29.63,11,5,19,0.00
2013-12-6,31,29,26,27,24,20,92,79,74,30.41,30.15,6,2,10,0.00
2013-12-7,27,24,18,20,15,-100,83,72,61,30.63,30.41,6,2,12,0.00
2013-12-8,29,23,18,28,19,13,96,84,71,30.59,29.98,15,6,19,0.00
2013-12-9,31,27,21,30,23,13,96,85,74,30.19,29.94,11,6,21,0.00
2013-12-10,28,20,11,15,12,6,82,69,55,30.28,30.05,13,6,26,0.00
2013-12-11,25,19,15,21,15,9,90,83,73,30.37,30.29,5,2,10,0.00